Time;durP1;ratioP1;P1;durP2;ratioP2;P2;SDS_P1;SDS_P2;PMS_P1;PMS_P2;Temp;Humidity;BMP_temperature;BMP_pressure;BME280_temperature;BME280_humidity;BME280_pressure;Samples;Min_cycle;Max_cycle;Signal;HPM_P1;HPM_P2
2021/12/14 00:00:26;;;;;;;11.02;8.27;;;;;;;7.18;95.02;102628.50;5073794;28;20127;-70
2021/12/14 00:02:52;;;;;;;9.68;8.63;;;;;;;7.17;94.95;102639.97;5073118;28;20037;-71
2021/12/14 00:05:20;;;;;;;9.90;8.90;;;;;;;7.16;94.91;102635.63;5041958;28;20112;-71
2021/12/14 00:07:47;;;;;;;9.73;8.40;;;;;;;7.18;95.03;102635.56;5066532;28;20557;-70
2021/12/14 00:10:43;;;;;;;13.25;8.85;;;;;;;7.17;95.21;102636.47;5059099;28;20049;-70
2021/12/14 00:13:24;;;;;;;13.77;8.60;;;;;;;7.18;95.39;102631.16;5047553;28;20044;-71
2021/12/14 00:15:50;;;;;;;12.57;9.27;;;;;;;7.18;95.26;102627.66;5063661;28;20040;-71
2021/12/14 00:18:16;;;;;;;12.75;9.40;;;;;;;7.17;95.35;102623.25;5068409;28;20082;-71
2021/12/14 00:20:47;;;;;;;10.52;9.20;;;;;;;7.15;95.65;102622.47;5060538;28;20021;-70
2021/12/14 00:25:50;;;;;;;9.43;8.48;;;;;;;7.16;95.52;102634.75;5053191;28;20043;-70
2021/12/14 00:28:29;;;;;;;10.52;8.88;;;;;;;7.16;95.80;102626.81;5066636;28;20021;-71
2021/12/14 00:30:57;;;;;;;11.07;8.88;;;;;;;7.14;95.79;102634.78;5052755;28;20390;-71
2021/12/14 00:33:26;;;;;;;12.63;8.75;;;;;;;7.14;95.76;102631.28;5052204;28;20090;-71
2021/12/14 00:35:52;;;;;;;13.10;9.23;;;;;;;7.14;95.80;102634.78;5045683;28;20024;-71
2021/12/14 00:38:21;;;;;;;10.60;9.32;;;;;;;7.13;95.63;102634.88;5070928;28;20032;-71
2021/12/14 00:40:51;;;;;;;13.52;8.75;;;;;;;7.09;95.94;102630.59;5057404;28;20040;-71
2021/12/14 00:43:17;;;;;;;10.38;8.77;;;;;;;7.13;95.97;102656.00;5072499;28;20375;-70
2021/12/14 00:45:43;;;;;;;9.55;8.65;;;;;;;7.13;96.04;102656.88;5068418;28;20107;-70
2021/12/14 00:48:10;;;;;;;12.88;8.70;;;;;;;7.13;96.16;102658.66;5039675;28;20032;-70
2021/12/14 00:50:39;;;;;;;12.20;9.38;;;;;;;7.10;96.12;102656.97;5053490;28;20040;-70
2021/12/14 00:53:05;;;;;;;10.93;9.43;;;;;;;7.11;96.07;102663.97;5072125;28;20032;-71
2021/12/14 00:55:36;;;;;;;12.82;9.52;;;;;;;7.09;96.05;102675.50;5051924;28;20030;-70
2021/12/14 00:58:03;;;;;;;12.55;9.20;;;;;;;7.08;96.26;102679.94;5065507;28;20029;-71
2021/12/14 01:00:34;;;;;;;10.68;9.27;;;;;;;7.09;96.32;102673.72;5047975;28;20391;-71
2021/12/14 01:03:00;;;;;;;12.38;9.10;;;;;;;7.09;96.24;102673.72;5071716;28;20036;-71
2021/12/14 01:05:34;;;;;;;11.18;9.18;;;;;;;7.08;96.21;102677.28;5056061;28;20052;-71
2021/12/14 01:08:01;;;;;;;10.70;9.60;;;;;;;7.10;96.06;102669.31;5069251;28;20040;-71
2021/12/14 01:10:31;;;;;;;10.43;8.60;;;;;;;7.07;96.11;102657.06;5071981;28;20134;-71
2021/12/14 01:13:02;;;;;;;12.60;9.50;;;;;;;7.08;95.88;102656.16;5069580;28;20035;-71
2021/12/14 01:19:13;;;;;;;12.18;9.07;;;;;;;7.08;96.17;102658.78;5071979;28;20040;-71
2021/12/14 01:24:07;;;;;;;12.50;9.80;;;;;;;7.08;96.08;102660.56;5039186;28;20403;-72
2021/12/14 01:26:36;;;;;;;12.05;9.05;;;;;;;7.07;96.00;102650.91;5051930;28;20036;-71
2021/12/14 01:29:05;;;;;;;12.85;9.30;;;;;;;7.06;95.80;102649.19;5071384;28;20470;-71
2021/12/14 01:31:37;;;;;;;10.90;9.07;;;;;;;7.05;95.91;102637.75;5051113;28;20033;-71
2021/12/14 01:34:22;;;;;;;11.90;9.32;;;;;;;7.07;95.91;102641.19;5066547;28;20024;-71
2021/12/14 01:36:54;;;;;;;12.43;9.15;;;;;;;7.03;95.92;102635.16;5057361;28;20037;-71
2021/12/14 01:42:10;;;;;;;14.20;8.45;;;;;;;7.03;95.83;102623.75;5071434;28;20177;-71
2021/12/14 01:44:47;;;;;;;11.52;8.75;;;;;;;7.03;95.57;102640.44;5057654;28;20471;-71
2021/12/14 01:47:21;;;;;;;11.30;8.60;;;;;;;7.01;95.62;102637.00;5063197;28;20028;-70
2021/12/14 01:49:48;;;;;;;9.30;7.35;;;;;;;7.01;95.38;102633.47;5040120;28;20029;-71
2021/12/14 01:52:21;;;;;;;9.48;7.20;;;;;;;7.01;95.51;102634.34;5048987;28;20419;-71
2021/12/14 01:54:51;;;;;;;9.60;7.68;;;;;;;6.99;95.25;102635.31;5059285;28;20033;-71
2021/12/14 01:57:19;;;;;;;8.10;7.30;;;;;;;6.98;95.44;102623.88;5056306;28;20059;-71
2021/12/14 01:59:47;;;;;;;10.27;7.45;;;;;;;6.98;95.08;102623.88;5057585;28;20123;-71
2021/12/14 02:02:29;;;;;;;7.78;6.40;;;;;;;6.97;95.13;102614.22;5057693;28;20119;-71
2021/12/14 02:04:55;;;;;;;11.10;6.70;;;;;;;6.96;94.99;102617.78;5065673;28;20107;-71
2021/12/14 02:07:24;;;;;;;7.13;6.43;;;;;;;6.95;95.14;102607.28;5046008;28;20170;-71
2021/12/14 02:09:52;;;;;;;;;;;;;;;7.00;95.05;102595.63;5069236;28;20139;-71
2021/12/14 02:12:21;;;;;;;8.97;6.67;;;;;;;6.94;94.85;102584.41;5070770;28;19920;-71
2021/12/14 02:14:48;;;;;;;9.00;5.82;;;;;;;6.92;94.57;102602.94;5065603;28;20776;-71
2021/12/14 02:17:18;;;;;;;7.50;6.70;;;;;;;6.90;94.52;102591.56;5048868;28;20024;-71
2021/12/14 02:19:44;;;;;;;9.23;6.10;;;;;;;6.91;94.50;102605.63;5067578;28;20476;-70
2021/12/14 02:22:11;;;;;;;9.48;6.95;;;;;;;6.89;94.36;102603.03;5058506;28;20043;-71
2021/12/14 02:24:39;;;;;;;7.70;6.15;;;;;;;6.89;94.42;102615.38;5049599;28;20041;-71
2021/12/14 02:27:05;;;;;;;7.47;6.05;;;;;;;6.88;94.29;102603.09;5050425;28;20502;-71
2021/12/14 02:29:37;;;;;;;12.13;6.03;;;;;;;6.86;94.41;102600.50;5053776;28;20025;-71
2021/12/14 02:32:12;;;;;;;7.68;6.20;;;;;;;6.87;94.26;102609.31;5056420;28;20143;-71
2021/12/14 02:34:46;;;;;;;8.18;5.93;;;;;;;6.86;94.30;102603.13;5056368;28;20090;-71
2021/12/14 02:37:14;;;;;;;6.97;6.20;;;;;;;6.82;94.38;102607.66;5059555;28;20124;-71
2021/12/14 02:42:20;;;;;;;7.50;6.30;;;;;;;6.83;94.05;102617.31;5053664;28;20038;-71
2021/12/14 02:44:48;;;;;;;10.23;6.75;;;;;;;6.81;93.98;102620.91;5063690;28;20530;-71
2021/12/14 02:47:16;;;;;;;8.63;6.13;;;;;;;6.83;94.25;102613.81;5060348;28;20490;-71
2021/12/14 02:49:43;;;;;;;7.88;6.28;;;;;;;6.83;94.06;102622.59;5059044;28;20029;-71
2021/12/14 02:52:14;;;;;;;8.77;6.53;;;;;;;6.82;94.10;102626.16;5058363;28;20032;-71
2021/12/14 02:54:46;;;;;;;9.23;6.70;;;;;;;6.81;94.32;102619.16;5070263;28;20117;-71
2021/12/14 02:57:16;;;;;;;8.95;6.70;;;;;;;6.81;94.16;102611.22;5070283;28;20178;-71
2021/12/14 02:59:44;;;;;;;9.95;6.65;;;;;;;6.79;94.08;102602.47;5047123;28;20154;-71
2021/12/14 03:02:15;;;;;;;8.27;6.15;;;;;;;6.78;94.04;102592.00;5030429;28;20040;-73
2021/12/14 03:04:48;;;;;;;10.00;6.25;;;;;;;6.79;94.18;102583.97;5030716;28;20244;-71
2021/12/14 03:07:18;;;;;;;10.00;6.72;;;;;;;6.78;93.84;102600.75;5029255;28;20025;-71
2021/12/14 03:10:17;;;;;;;7.72;6.65;;;;;;;6.78;94.01;102586.69;5042146;28;20475;-71
2021/12/14 03:12:45;;;;;;;9.68;6.95;;;;;;;6.77;93.78;102582.31;5050316;28;20471;-71
2021/12/14 03:15:17;;;;;;;11.60;6.80;;;;;;;6.77;93.94;102575.25;5048089;28;20017;-71
2021/12/14 03:17:44;;;;;;;10.60;6.80;;;;;;;6.76;93.85;102575.31;5030341;28;20026;-71
2021/12/14 03:20:14;;;;;;;7.82;6.65;;;;;;;6.75;94.08;102573.59;5030166;28;20029;-70
2021/12/14 03:22:45;;;;;;;8.80;7.38;;;;;;;6.73;93.98;102565.72;5030322;28;20034;-71
2021/12/14 03:25:13;;;;;;;10.13;7.85;;;;;;;6.73;93.96;102568.38;5030112;28;20037;-70
2021/12/14 03:27:40;;;;;;;10.18;7.53;;;;;;;6.72;94.16;102568.41;5030329;28;20427;-71
2021/12/14 03:30:17;;;;;;;10.80;7.85;;;;;;;6.72;94.08;102569.25;5032167;28;20028;-71
2021/12/14 03:32:42;;;;;;;10.10;8.10;;;;;;;6.71;94.23;102566.66;5039793;28;20028;-70
2021/12/14 03:35:08;;;;;;;9.10;7.35;;;;;;;6.71;94.17;102569.31;5053770;28;20028;-71
2021/12/14 03:37:34;;;;;;;9.60;8.30;;;;;;;6.69;94.15;102566.72;5044071;28;20359;-71
2021/12/14 03:40:01;;;;;;;9.32;7.70;;;;;;;6.69;94.17;102563.22;5073581;28;20104;-71
2021/12/14 03:42:37;;;;;;;10.27;8.75;;;;;;;6.69;94.42;102560.59;5057298;28;20029;-71
2021/12/14 03:45:13;;;;;;;13.82;9.20;;;;;;;6.67;94.42;102560.63;5051707;28;20044;-70
2021/12/14 03:47:43;;;;;;;13.48;9.63;;;;;;;6.65;94.68;102565.97;5053487;28;20063;-71
2021/12/14 03:50:14;;;;;;;15.52;10.43;;;;;;;6.66;94.49;102577.38;5053564;28;20025;-70
2021/12/14 03:52:41;;;;;;;13.60;9.75;;;;;;;6.64;94.70;102585.38;5043684;28;20386;-71
2021/12/14 03:55:18;;;;;;;15.07;10.70;;;;;;;6.63;94.73;102593.34;5052059;28;20029;-71
2021/12/14 03:57:44;;;;;;;14.25;10.20;;;;;;;6.64;94.76;102614.41;5037228;28;20431;-71
2021/12/14 04:00:15;;;;;;;15.25;10.73;;;;;;;6.63;94.65;102606.53;5051908;28;20020;-71
2021/12/14 04:02:41;;;;;;;15.85;11.55;;;;;;;6.67;94.90;102618.72;5053624;28;20107;-71
2021/12/14 04:05:11;;;;;;;13.88;11.27;;;;;;;6.65;94.90;102618.75;5051895;28;20033;-71
2021/12/14 04:07:40;;;;;;;13.57;11.73;;;;;;;6.66;94.99;102622.25;5051978;28;20062;-71
2021/12/14 04:10:09;;;;;;;16.25;11.48;;;;;;;6.66;95.11;102624.91;5053156;28;20057;-71
2021/12/14 04:12:35;;;;;;;14.43;12.00;;;;;;;6.69;95.12;102631.88;5053079;28;20035;-71
2021/12/14 04:15:00;;;;;;;16.30;11.80;;;;;;;6.67;94.98;102624.84;5046731;28;20112;-71
2021/12/14 04:17:28;;;;;;;15.90;11.93;;;;;;;6.68;95.17;102625.75;5050951;28;20029;-71
2021/12/14 04:19:54;;;;;;;17.27;12.15;;;;;;;6.68;95.15;102609.91;5039717;28;20051;-71
2021/12/14 04:22:27;;;;;;;16.05;11.98;;;;;;;6.67;94.95;102606.38;5052960;28;20471;-71
2021/12/14 04:24:58;;;;;;;16.20;12.68;;;;;;;6.66;94.99;102614.34;5052758;28;20033;-71
2021/12/14 04:27:27;;;;;;;16.70;12.68;;;;;;;6.67;94.87;102624.00;5048668;28;20065;-71
2021/12/14 04:29:54;;;;;;;18.45;13.15;;;;;;;6.66;95.50;102622.25;5048172;28;20029;-71
2021/12/14 04:32:20;;;;;;;16.15;12.95;;;;;;;6.66;94.88;102625.78;5053030;28;20025;-71
2021/12/14 04:34:48;;;;;;;15.68;13.07;;;;;;;6.66;95.09;102612.59;5054609;28;20372;-71
2021/12/14 04:37:16;;;;;;;18.30;13.32;;;;;;;6.66;95.17;102601.13;5072226;28;20107;-70
2021/12/14 04:39:47;;;;;;;17.25;13.07;;;;;;;6.65;95.01;102610.84;5065042;28;20391;-71
2021/12/14 04:53:39;;;;;;;20.10;13.95;;;;;;;6.62;95.20;102589.81;5047332;28;20524;-71
2021/12/14 04:56:07;;;;;;;17.48;13.48;;;;;;;6.63;95.38;102593.34;5052542;28;20033;-71
2021/12/14 04:58:41;;;;;;;18.77;14.40;;;;;;;6.62;95.37;102591.59;5070645;28;20232;-70
2021/12/14 05:01:10;;;;;;;17.67;13.32;;;;;;;6.61;95.25;102595.13;5064975;28;20474;-71
2021/12/14 05:03:42;;;;;;;19.50;13.73;;;;;;;6.62;95.41;102594.25;5070400;28;20543;-71
2021/12/14 05:06:13;;;;;;;17.73;14.10;;;;;;;6.62;95.50;102596.88;5072079;28;20028;-71
2021/12/14 05:11:11;;;;;;;18.45;14.48;;;;;;;6.60;95.40;102596.06;5052080;28;20037;-71
2021/12/14 05:13:38;;;;;;;;;;;;;;;6.68;95.08;102591.41;5060835;28;20143;-71
2021/12/14 05:16:04;;;;;;;18.23;13.57;;;;;;;6.61;95.17;102590.75;5063741;28;20014;-71
2021/12/14 05:18:30;;;;;;;18.67;13.90;;;;;;;6.60;95.23;102588.16;5064166;28;20508;-70
2021/12/14 05:20:57;;;;;;;20.75;15.38;;;;;;;6.58;95.16;102582.91;5042553;28;20147;-71
2021/12/14 05:23:29;;;;;;;21.35;14.82;;;;;;;6.60;95.39;102588.16;5071977;28;20483;-71
2021/12/14 05:25:57;;;;;;;19.67;14.50;;;;;;;6.58;95.36;102576.78;5064705;28;20035;-71
2021/12/14 05:28:23;;;;;;;20.58;14.55;;;;;;;6.58;95.45;102579.44;5054394;28;20029;-71
2021/12/14 05:30:52;;;;;;;20.95;15.07;;;;;;;6.57;95.38;102593.53;5048864;28;20028;-72
2021/12/14 05:33:34;;;;;;;18.83;14.50;;;;;;;6.59;95.39;102586.41;5051999;28;20405;-71
2021/12/14 05:36:07;;;;;;;18.80;14.95;;;;;;;6.58;95.42;102584.72;5070842;28;20671;-71
2021/12/14 05:44:16;;;;;;;21.60;14.93;;;;;;;6.53;95.68;102574.28;5063902;28;20473;-71
2021/12/14 05:46:49;;;;;;;21.88;15.55;;;;;;;6.56;95.33;102591.78;5071471;28;20035;-71
2021/12/14 05:49:18;;;;;;;22.77;17.15;;;;;;;6.56;95.38;102594.44;5057230;28;20514;-72
2021/12/14 05:51:43;;;;;;;21.47;15.53;;;;;;;6.57;95.24;102588.25;5069637;28;20024;-71
2021/12/14 05:54:09;;;;;;;24.27;16.85;;;;;;;6.57;95.33;102593.53;5046493;28;20087;-72
2021/12/14 05:56:35;;;;;;;20.67;16.27;;;;;;;6.56;95.60;102594.44;5064481;28;20036;-71
2021/12/14 05:59:02;;;;;;;23.65;16.50;;;;;;;6.54;95.55;102589.19;5063723;28;20032;-70
2021/12/14 06:01:32;;;;;;;23.00;16.42;;;;;;;6.54;95.50;102601.53;5064348;28;20032;-71
2021/12/14 06:04:07;;;;;;;23.40;17.30;;;;;;;6.53;95.63;102607.72;5053908;28;20028;-70
2021/12/14 06:06:40;;;;;;;24.90;17.38;;;;;;;6.53;95.65;102608.59;5066106;28;20037;-71
2021/12/14 06:09:30;;;;;;;24.40;17.75;;;;;;;6.55;95.60;102606.78;5045823;28;20041;-70
2021/12/14 06:11:59;;;;;;;23.58;17.67;;;;;;;6.52;95.55;102606.00;5050740;28;20244;-71
2021/12/14 06:14:28;;;;;;;23.98;17.85;;;;;;;6.50;95.56;102608.69;5062656;28;20020;-71
2021/12/14 06:16:58;;;;;;;24.27;17.70;;;;;;;6.51;95.67;102613.03;5041535;28;20036;-71
2021/12/14 06:19:27;;;;;;;25.20;18.05;;;;;;;6.51;95.80;102615.69;5062095;28;20317;-71
2021/12/14 06:21:54;;;;;;;;;;;;;;;6.58;95.27;102619.03;5067881;28;20044;-71
2021/12/14 06:24:23;;;;;;;26.83;18.45;;;;;;;6.51;95.51;102618.31;5052567;28;19917;-71
2021/12/14 06:26:52;;;;;;;26.55;18.48;;;;;;;6.53;95.68;102623.56;5060380;28;20111;-70
2021/12/14 06:29:28;;;;;;;25.25;17.98;;;;;;;6.52;95.57;102622.69;5058819;28;20028;-70
2021/12/14 06:31:54;;;;;;;26.67;17.90;;;;;;;6.50;95.52;102613.97;5056375;28;20033;-71
2021/12/14 06:34:24;;;;;;;26.65;19.55;;;;;;;6.49;95.61;102620.16;5043821;28;20433;-71
2021/12/14 06:37:29;;;;;;;28.85;20.45;;;;;;;6.51;95.63;102615.69;5062575;28;20078;-71
2021/12/14 06:40:17;;;;;;;26.50;18.80;;;;;;;6.48;95.80;102621.94;5049516;28;20490;-70
2021/12/14 06:42:49;;;;;;;30.23;19.88;;;;;;;6.48;95.75;102621.94;5065943;28;20494;-70
2021/12/14 06:45:34;;;;;;;27.95;19.27;;;;;;;6.51;95.85;102622.75;5043737;28;20117;-71
2021/12/14 06:48:07;;;;;;;29.20;20.73;;;;;;;6.50;95.71;102631.59;5040493;28;20083;-71
2021/12/14 06:50:51;;;;;;;31.50;22.33;;;;;;;6.46;96.20;102629.03;5047188;28;20386;-71
2021/12/14 06:53:18;;;;;;;28.33;20.38;;;;;;;6.48;95.80;102634.28;5036482;28;20091;-71
2021/12/14 06:55:44;;;;;;;31.30;21.13;;;;;;;6.48;96.04;102639.56;5029909;28;20518;-71
2021/12/14 06:58:17;;;;;;;31.95;21.30;;;;;;;6.48;95.68;102644.84;5030482;28;20566;-71
2021/12/14 07:00:51;;;;;;;31.52;21.38;;;;;;;6.49;95.88;102643.91;5030461;28;20112;-71
2021/12/14 07:03:17;;;;;;;29.27;20.75;;;;;;;6.49;95.90;102643.91;5025762;28;20058;-71
2021/12/14 07:05:46;;;;;;;28.50;20.35;;;;;;;6.46;95.85;102639.59;5052441;28;20153;-71
2021/12/14 07:08:16;;;;;;;32.03;22.48;;;;;;;6.47;95.83;102651.03;5054163;28;20362;-71
2021/12/14 07:10:43;;;;;;;32.03;21.00;;;;;;;6.46;96.22;102646.63;5050586;28;20069;-71
2021/12/14 07:13:14;;;;;;;31.60;21.55;;;;;;;6.47;95.53;102643.94;5036779;28;20038;-71
2021/12/14 07:15:39;;;;;;;32.35;21.77;;;;;;;6.49;95.76;102654.47;5043595;28;20056;-71
2021/12/14 07:18:06;;;;;;;32.25;22.88;;;;;;;6.47;96.15;102646.59;5050970;28;20053;-71
2021/12/14 07:20:37;;;;;;;33.20;22.10;;;;;;;6.48;95.96;102660.69;5036148;28;20032;-70
2021/12/14 07:23:04;;;;;;;32.70;22.58;;;;;;;6.49;95.88;102670.31;5056550;28;20091;-70
2021/12/14 07:25:37;;;;;;;35.40;22.88;;;;;;;6.49;95.89;102670.31;5034169;28;20026;-71
2021/12/14 07:28:14;;;;;;;32.22;22.92;;;;;;;6.50;96.17;102677.31;5032435;28;20037;-72
2021/12/14 07:30:58;;;;;;;33.03;23.20;;;;;;;6.50;96.13;102687.03;5038388;28;20395;-71
2021/12/14 07:33:30;;;;;;;32.88;21.88;;;;;;;6.50;96.19;102681.75;5035109;28;20049;-71
2021/12/14 07:36:07;;;;;;;31.08;21.63;;;;;;;6.48;95.97;102682.66;5052017;28;20252;-72
2021/12/14 07:39:02;;;;;;;36.20;23.20;;;;;;;6.51;96.09;102680.81;5053221;28;20044;-71
2021/12/14 07:41:30;;;;;;;32.25;21.73;;;;;;;6.50;96.01;102679.97;5046123;28;20036;-71
2021/12/14 07:44:10;;;;;;;31.90;22.00;;;;;;;6.49;96.11;102678.22;5047216;28;20045;-71
2021/12/14 07:46:47;;;;;;;32.00;22.83;;;;;;;6.50;96.12;102687.88;5053134;28;20048;-70
2021/12/14 07:49:34;;;;;;;32.67;22.17;;;;;;;6.52;96.12;102688.69;5042782;28;20503;-71
2021/12/14 07:52:16;;;;;;;34.92;22.95;;;;;;;6.51;96.18;102697.50;5063510;28;20471;-71
2021/12/14 07:54:49;;;;;;;33.58;22.85;;;;;;;6.51;96.08;102705.44;5073050;28;20032;-71
2021/12/14 07:57:20;;;;;;;32.85;22.33;;;;;;;6.50;95.90;102703.72;5072745;28;20037;-71
2021/12/14 07:59:50;;;;;;;36.28;23.58;;;;;;;6.51;95.95;102710.72;5048278;28;20154;-71
2021/12/14 08:02:21;;;;;;;36.97;23.88;;;;;;;6.52;96.21;102714.25;5072650;28;20040;-71
2021/12/14 08:04:52;;;;;;;33.45;24.17;;;;;;;6.52;96.04;102716.88;5039629;28;20052;-71
2021/12/14 08:07:31;;;;;;;33.22;23.27;;;;;;;6.54;96.01;102720.34;5037006;28;20049;-71
2021/12/14 08:10:26;;;;;;;34.70;24.60;;;;;;;6.54;95.99;102715.06;5052584;28;20106;-71
2021/12/14 08:12:56;;;;;;;32.70;23.70;;;;;;;6.53;95.91;102724.75;5054535;28;20119;-71
2021/12/14 08:15:27;;;;;;;34.65;24.45;;;;;;;6.54;96.06;102709.78;5069403;28;20051;-71
2021/12/14 08:18:06;;;;;;;38.33;23.42;;;;;;;6.56;96.31;102715.88;5072123;28;20046;-70
2021/12/14 08:20:34;;;;;;;34.45;23.02;;;;;;;6.53;96.23;102715.94;5062956;28;20041;-71
2021/12/14 08:23:13;;;;;;;34.08;24.00;;;;;;;6.55;96.29;102717.66;5056670;28;20493;-70
2021/12/14 08:25:40;;;;;;;37.13;24.35;;;;;;;6.54;96.04;102718.56;5065212;28;20041;-71
2021/12/14 08:28:07;;;;;;;40.17;26.20;;;;;;;6.57;96.16;102720.25;5065244;28;20036;-71
2021/12/14 08:30:35;;;;;;;35.17;24.70;;;;;;;6.57;96.07;102725.53;5063271;28;20029;-71
2021/12/14 08:33:01;;;;;;;37.00;24.42;;;;;;;6.58;96.05;102722.00;5057397;28;20029;-71
2021/12/14 08:35:27;;;;;;;35.42;24.88;;;;;;;6.60;96.00;102725.44;5036747;28;20452;-70
2021/12/14 08:37:58;;;;;;;34.05;24.10;;;;;;;6.60;96.19;102722.81;5034701;28;20021;-71
2021/12/14 08:40:32;;;;;;;34.50;23.52;;;;;;;6.63;96.18;102722.72;5032016;28;20029;-71
2021/12/14 08:45:30;;;;;;;37.40;25.50;;;;;;;6.64;96.15;102724.44;5036758;28;20052;-71
2021/12/14 08:48:01;;;;;;;37.83;25.08;;;;;;;6.64;96.24;102727.97;5043231;28;20483;-70
2021/12/14 08:50:29;;;;;;;36.67;24.45;;;;;;;6.64;95.99;102724.44;5046511;28;20067;-71
2021/12/14 08:52:55;;;;;;;35.35;24.42;;;;;;;6.66;95.97;102722.59;5052009;28;20074;-71
2021/12/14 08:55:23;;;;;;;37.50;25.13;;;;;;;6.67;96.03;102733.13;5050613;28;20029;-71
2021/12/14 08:57:49;;;;;;;37.63;25.90;;;;;;;6.69;96.11;102737.50;5049642;28;20048;-70
2021/12/14 09:00:27;;;;;;;35.65;24.88;;;;;;;6.71;95.91;102733.91;5054805;28;20032;-71
2021/12/14 09:02:58;;;;;;;38.38;25.75;;;;;;;6.71;96.30;102735.66;5070985;28;20398;-71
2021/12/14 09:05:33;;;;;;;40.00;26.08;;;;;;;6.72;95.86;102738.28;5068771;28;20366;-71
2021/12/14 09:07:58;;;;;;;38.40;25.15;;;;;;;6.76;96.03;102746.97;5070719;28;20025;-69
2021/12/14 09:10:27;;;;;;;36.20;25.20;;;;;;;6.74;96.11;102739.06;5063313;28;20052;-70
2021/12/14 09:12:56;;;;;;;44.77;26.80;;;;;;;6.80;96.10;102738.06;5060724;28;20052;-69
2021/12/14 09:15:27;;;;;;;36.95;25.15;;;;;;;6.83;96.16;102738.81;5053036;28;20356;-69
2021/12/14 09:17:54;;;;;;;37.38;25.85;;;;;;;6.85;96.10;102739.63;5048435;28;20029;-68
2021/12/14 09:20:26;;;;;;;40.97;26.25;;;;;;;6.88;95.88;102741.31;5049915;28;20051;-69
2021/12/14 09:22:57;;;;;;;35.45;24.80;;;;;;;6.91;95.91;102748.28;5070432;28;20029;-70
2021/12/14 09:25:26;;;;;;;42.08;27.85;;;;;;;6.94;96.12;102746.41;5066690;28;20126;-70
2021/12/14 09:27:53;;;;;;;38.78;25.48;;;;;;;6.95;95.46;102744.66;5069384;28;20024;-70
2021/12/14 09:30:22;;;;;;;39.38;26.17;;;;;;;6.98;95.94;102747.19;5070262;28;20024;-69
2021/12/14 09:32:48;;;;;;;38.30;26.13;;;;;;;7.02;95.77;102754.09;5038771;28;20139;-71
2021/12/14 09:35:17;;;;;;;35.17;25.00;;;;;;;7.03;95.75;102743.47;5051322;28;20332;-71
2021/12/14 09:37:49;;;;;;;39.05;26.95;;;;;;;7.08;95.60;102746.00;5052199;28;20025;-71
2021/12/14 09:40:30;;;;;;;38.65;26.23;;;;;;;7.14;96.26;102751.06;5049215;28;20356;-71
2021/12/14 09:42:56;;;;;;;39.35;26.40;;;;;;;7.16;95.51;102746.63;5049897;28;20499;-71
2021/12/14 09:45:33;;;;;;;37.08;25.67;;;;;;;7.18;95.70;102741.28;5049246;28;20088;-71
2021/12/14 09:48:00;;;;;;;41.10;26.45;;;;;;;7.18;95.36;102739.50;5022567;28;20020;-71
2021/12/14 09:50:30;;;;;;;38.90;26.88;;;;;;;7.19;95.13;102738.59;5060750;28;20017;-71
2021/12/14 09:52:58;;;;;;;41.63;26.30;;;;;;;7.22;95.28;102724.41;5071085;28;20040;-71
2021/12/14 09:55:27;;;;;;;40.47;27.83;;;;;;;7.25;94.76;102731.38;5050954;28;20379;-71
2021/12/14 09:57:57;;;;;;;38.63;27.97;;;;;;;7.26;94.75;102731.34;5063253;28;20089;-71
2021/12/14 10:00:28;;;;;;;41.35;27.25;;;;;;;7.27;94.86;102718.97;5059883;28;20036;-70
2021/12/14 10:02:55;;;;;;;38.13;26.63;;;;;;;7.32;95.11;102727.63;5069174;28;20020;-71
2021/12/14 10:05:38;;;;;;;38.75;25.95;;;;;;;7.36;94.85;102726.59;5056564;28;20033;-71
2021/12/14 10:08:14;;;;;;;40.45;28.80;;;;;;;7.36;94.92;102731.88;5070466;28;20060;-71
2021/12/14 10:10:43;;;;;;;39.83;27.05;;;;;;;7.38;94.54;102724.78;5044245;28;20041;-71
2021/12/14 10:13:08;;;;;;;41.03;27.53;;;;;;;7.42;94.79;102723.75;5044406;28;20036;-71
2021/12/14 10:15:39;;;;;;;42.75;27.95;;;;;;;7.46;94.65;102733.31;5070270;28;20145;-71
2021/12/14 10:18:11;;;;;;;38.60;26.85;;;;;;;7.46;94.50;102728.03;5062185;28;20399;-71
2021/12/14 10:20:53;;;;;;;43.13;27.30;;;;;;;7.53;94.54;102742.78;5061130;28;20021;-71
2021/12/14 10:23:21;;;;;;;41.35;27.17;;;;;;;7.55;94.30;102740.06;5061680;28;20472;-71
2021/12/14 10:25:54;;;;;;;42.80;27.13;;;;;;;7.56;94.15;102737.38;5070734;28;20024;-71
2021/12/14 10:28:23;;;;;;;40.42;27.23;;;;;;;7.58;94.38;102743.47;5069990;28;20032;-71
2021/12/14 10:30:55;;;;;;;41.25;27.73;;;;;;;7.61;94.17;102737.25;5049395;28;20479;-72
2021/12/14 10:33:22;;;;;;;37.47;26.55;;;;;;;7.62;93.91;102736.31;5050396;28;20037;-72
2021/12/14 10:35:53;;;;;;;42.05;26.45;;;;;;;7.63;93.99;102738.03;5048710;28;20054;-71
2021/12/14 10:38:28;;;;;;;40.08;27.42;;;;;;;7.68;94.08;102740.53;5069546;28;20033;-71
2021/12/14 10:43:49;;;;;;;40.28;27.45;;;;;;;7.72;93.65;102752.72;5060140;28;20102;-71
2021/12/14 10:46:26;;;;;;;40.53;28.58;;;;;;;7.73;93.99;102754.47;5052483;28;20395;-71
2021/12/14 10:48:53;;;;;;;41.50;28.13;;;;;;;7.74;94.02;102750.88;5049601;28;20056;-71
2021/12/14 10:51:23;;;;;;;46.20;26.67;;;;;;;7.75;93.85;102750.84;5042620;28;20027;-71
2021/12/14 10:53:52;;;;;;;42.35;28.52;;;;;;;7.77;93.76;102745.50;5052104;28;20116;-71
2021/12/14 10:56:25;;;;;;;40.83;26.90;;;;;;;7.82;93.82;102748.84;5050389;28;20035;-71
2021/12/14 10:58:55;;;;;;;42.83;29.63;;;;;;;7.81;93.32;102738.31;5054040;28;20028;-71
2021/12/14 11:01:31;;;;;;;46.55;28.77;;;;;;;7.84;93.56;102735.56;5051978;28;20543;-71
2021/12/14 11:04:01;;;;;;;44.15;28.48;;;;;;;7.85;93.50;102722.28;5049936;28;20482;-70
2021/12/14 11:06:32;;;;;;;41.97;29.20;;;;;;;7.88;93.13;102738.06;5044754;28;20446;-70
2021/12/14 11:09:40;;;;;;;42.67;28.90;;;;;;;7.88;93.47;102731.91;5041647;28;20388;-71
2021/12/14 11:11:59;;;;;;;42.50;28.10;;;;;;;7.93;93.50;102733.47;5033025;28;20028;-70
2021/12/14 11:14:28;;;;;;;41.65;27.90;;;;;;;7.94;93.20;102735.22;5039548;28;20483;-70
2021/12/14 11:19:54;;;;;;;40.05;27.40;;;;;;;8.02;93.38;102715.53;5036071;28;20048;-71
2021/12/14 11:22:25;;;;;;;42.30;28.52;;;;;;;8.06;93.85;102714.50;5038264;28;20395;-72
2021/12/14 11:25:01;;;;;;;41.83;28.63;;;;;;;8.10;93.04;102718.78;5036903;28;20040;-71
2021/12/14 11:27:36;;;;;;;42.03;28.73;;;;;;;8.12;93.11;102715.13;5044043;28;20033;-71
2021/12/14 11:30:24;;;;;;;42.25;28.52;;;;;;;8.16;93.02;102713.28;5051983;28;20382;-71
2021/12/14 11:33:17;;;;;;;40.13;28.77;;;;;;;8.20;93.09;102708.72;5053535;28;20524;-71
2021/12/14 11:35:49;;;;;;;40.15;27.98;;;;;;;8.21;92.83;102706.03;5056131;28;20055;-71
2021/12/14 11:38:36;;;;;;;40.10;28.50;;;;;;;8.22;92.71;102707.72;5052886;28;20614;-70
2021/12/14 11:41:22;;;;;;;44.13;28.90;;;;;;;8.25;92.76;102707.63;5052713;28;20041;-70
2021/12/14 11:43:55;;;;;;;45.83;29.05;;;;;;;8.27;92.52;102710.22;5049200;28;20572;-71
2021/12/14 11:46:23;;;;;;;44.50;30.33;;;;;;;8.29;92.57;102705.72;5054542;28;20476;-71
2021/12/14 11:48:48;;;;;;;43.65;29.75;;;;;;;8.33;92.46;102694.13;5056458;28;20060;-71
2021/12/14 11:51:14;;;;;;;46.60;30.15;;;;;;;8.30;92.18;102694.22;5056008;28;20108;-71
2021/12/14 11:53:48;;;;;;;39.00;28.13;;;;;;;8.37;92.21;102697.50;5036013;28;20047;-71
2021/12/14 11:56:16;;;;;;;41.97;30.17;;;;;;;8.37;92.11;102703.66;5033844;28;20118;-71
2021/12/14 11:58:56;;;;;;;44.60;29.77;;;;;;;8.40;92.01;102702.69;5050380;28;20027;-71
2021/12/14 12:01:31;;;;;;;45.63;31.13;;;;;;;8.38;92.06;102701.88;5036857;28;20042;-69
2021/12/14 12:03:57;;;;;;;46.53;29.92;;;;;;;8.41;91.91;102701.75;5037219;28;20045;-70
2021/12/14 12:09:29;;;;;;;44.80;29.98;;;;;;;8.44;92.22;102706.97;5064331;28;20057;-71
2021/12/14 12:12:46;;;;;;;45.35;30.45;;;;;;;8.48;92.25;102705.94;5035979;28;20045;-70
2021/12/14 12:15:21;;;;;;;44.33;31.02;;;;;;;8.49;92.17;102710.31;5013400;28;20041;-70
2021/12/14 12:17:50;;;;;;;46.13;30.23;;;;;;;8.49;92.16;102708.53;5033323;28;20054;-70
2021/12/14 12:20:35;;;;;;;45.85;30.58;;;;;;;8.49;92.04;102708.53;5034426;28;20034;-70
2021/12/14 12:23:07;;;;;;;44.05;29.15;;;;;;;8.48;91.77;102704.16;5036307;28;20637;-71
2021/12/14 12:25:37;;;;;;;48.28;31.77;;;;;;;8.48;91.88;102706.81;5051490;28;20485;-70